Time;durP1;ratioP1;P1;durP2;ratioP2;P2;SDS_P1;SDS_P2;PMS_P1;PMS_P2;Temp;Humidity;BMP_temperature;BMP_pressure;BME280_temperature;BME280_humidity;BME280_pressure;Samples;Min_cycle;Max_cycle;Signal;HPM_P1;HPM_P2
2021/08/27 19:47:05;;;;;;;2.08;1.05;;;;;;;19.30;59.22;102103.13;5078469;28;20383;-72
2021/08/27 19:49:30;;;;;;;10.82;2.25;;;;;;;17.92;69.12;102106.19;5077260;28;20159;-73
2021/08/27 19:51:55;;;;;;;8.55;2.47;;;;;;;16.56;74.99;102095.94;5076498;28;20024;-73
2021/08/27 19:54:21;;;;;;;7.35;2.03;;;;;;;16.91;73.16;102093.47;5076884;28;20032;-73
2021/08/27 19:56:46;;;;;;;12.20;2.42;;;;;;;17.57;70.53;102092.03;5077646;28;20029;-73
2021/08/27 19:59:12;;;;;;;1.77;1.10;;;;;;;18.50;62.78;102080.16;5076070;28;20070;-74
2021/08/27 20:01:37;;;;;;;21.42;2.97;;;;;;;17.37;71.75;102088.63;5077518;28;20103;-74
2021/08/27 20:04:03;;;;;;;10.02;2.22;;;;;;;16.25;75.96;102093.84;5059434;28;20021;-74
2021/08/27 20:06:28;;;;;;;18.45;3.40;;;;;;;15.85;79.34;102091.16;5057099;28;20216;-73
2021/08/27 20:08:54;;;;;;;10.63;2.78;;;;;;;15.76;79.98;102096.00;5057158;28;20041;-73
2021/08/27 20:11:19;;;;;;;8.02;2.05;;;;;;;16.60;74.37;102091.38;5056782;28;20025;-73
2021/08/27 20:13:45;;;;;;;7.53;2.00;;;;;;;16.61;71.00;102093.97;5057455;28;20029;-73
2021/08/27 20:16:10;;;;;;;12.20;2.75;;;;;;;16.31;76.72;102097.06;5056246;28;20331;-74
2021/08/27 20:18:36;;;;;;;10.63;2.53;;;;;;;16.06;77.22;102097.31;5056654;28;20044;-74
2021/08/27 20:21:01;;;;;;;16.20;3.38;;;;;;;15.48;80.41;102103.25;5039311;28;20033;-74
2021/08/27 20:23:26;;;;;;;14.55;2.90;;;;;;;16.44;74.52;102101.78;5055526;28;20025;-74
2021/08/27 20:25:52;;;;;;;14.25;2.88;;;;;;;15.95;77.68;102106.59;5057423;28;20065;-74
2021/08/27 20:28:17;;;;;;;14.48;2.53;;;;;;;15.95;78.09;102103.97;5038784;28;20313;-74
2021/08/27 20:30:43;;;;;;;13.10;3.30;;;;;;;15.70;79.14;102105.84;5057078;28;20267;-74
2021/08/27 20:33:08;;;;;;;16.83;2.83;;;;;;;15.90;77.80;102105.03;5057020;28;20037;-74
2021/08/27 20:35:33;;;;;;;15.18;2.88;;;;;;;15.72;79.09;102109.28;5055173;28;20036;-74
2021/08/27 20:37:59;;;;;;;8.10;2.00;;;;;;;15.99;73.80;102111.72;5056911;28;20033;-74
2021/08/27 20:40:25;;;;;;;15.32;2.80;;;;;;;15.86;76.14;102110.50;5056091;28;20032;-74
2021/08/27 20:42:51;;;;;;;13.23;2.92;;;;;;;15.80;77.79;102113.41;5056841;28;20060;-74
2021/08/27 20:45:16;;;;;;;9.00;2.35;;;;;;;16.02;76.19;102111.56;5054723;28;20049;-74
2021/08/27 20:47:41;;;;;;;3.42;1.25;;;;;;;17.35;67.97;102109.00;5056565;28;20080;-74
2021/08/27 20:50:09;;;;;;;12.00;3.15;;;;;;;17.65;67.42;102098.66;5055707;28;20385;-74
2021/08/27 20:52:34;;;;;;;5.80;1.70;;;;;;;17.43;69.05;102098.91;5055016;28;20032;-74
2021/08/27 20:55:00;;;;;;;15.25;2.78;;;;;;;16.80;70.35;102109.81;5056486;28;20029;-74
2021/08/27 20:57:25;;;;;;;7.07;2.67;;;;;;;17.37;70.02;102103.63;5047852;28;20035;-74
2021/08/27 20:59:50;;;;;;;5.25;1.35;;;;;;;17.28;68.80;102099.63;5022258;28;20032;-74
2021/08/27 21:02:16;;;;;;;8.95;2.60;;;;;;;16.84;71.69;102098.19;5037530;28;20037;-74
2021/08/27 21:04:41;;;;;;;7.55;1.95;;;;;;;17.26;69.18;102105.03;5043318;28;20037;-74
2021/08/27 21:07:07;;;;;;;9.52;2.40;;;;;;;16.82;71.70;102101.81;5043047;28;20082;-75
2021/08/27 21:09:32;;;;;;;12.07;2.50;;;;;;;17.70;66.97;102102.88;5042268;28;20049;-74
2021/08/27 21:11:57;;;;;;;2.95;1.42;;;;;;;17.71;65.93;102100.16;5042945;28;20029;-74
2021/08/27 21:14:23;;;;;;;3.47;1.55;;;;;;;17.69;66.87;102094.06;5021466;28;20040;-74
2021/08/27 21:16:48;;;;;;;14.00;2.42;;;;;;;17.38;67.47;102095.63;5038031;28;20037;-74
2021/08/27 21:19:17;;;;;;;16.02;3.22;;;;;;;16.57;72.70;102089.75;5042240;28;20100;-74
2021/08/27 21:21:43;;;;;;;5.85;2.72;;;;;;;17.02;68.85;102098.25;5041681;28;20026;-74
2021/08/27 21:24:08;;;;;;;13.63;3.42;;;;;;;16.49;73.04;102102.44;5042665;28;20098;-74
2021/08/27 21:26:34;;;;;;;8.82;2.72;;;;;;;16.91;70.14;102109.34;5042111;28;20370;-74
2021/08/27 21:28:59;;;;;;;11.88;3.50;;;;;;;15.90;75.48;102118.25;5041572;28;20371;-74
2021/08/27 21:31:25;;;;;;;14.40;3.47;;;;;;;16.55;72.35;102099.50;5042007;28;20067;-74
2021/08/27 21:33:50;;;;;;;8.02;3.13;;;;;;;16.11;74.63;102110.31;5041564;28;20057;-74
2021/08/27 21:36:16;;;;;;;9.23;2.60;;;;;;;16.97;70.04;102110.84;5041827;28;20029;-74
2021/08/27 21:38:41;;;;;;;11.48;3.85;;;;;;;16.22;74.38;102120.41;5042510;28;20386;-74
2021/08/27 21:41:06;;;;;;;9.70;3.28;;;;;;;16.15;74.52;102118.94;5042318;28;20029;-74
2021/08/27 21:43:32;;;;;;;20.13;4.28;;;;;;;16.32;74.46;102113.78;5041990;28;20045;-74
2021/08/27 21:45:57;;;;;;;8.57;2.50;;;;;;;17.56;66.61;102114.19;5042119;28;20321;-74
2021/08/27 21:48:23;;;;;;;9.93;2.53;;;;;;;17.41;67.98;102121.09;5040771;28;20274;-74
2021/08/27 21:50:48;;;;;;;6.35;1.70;;;;;;;17.83;65.29;102118.06;5041157;28;20025;-74
2021/08/27 21:53:13;;;;;;;8.48;2.33;;;;;;;17.41;67.39;102116.66;5041676;28;20375;-74
2021/08/27 21:55:39;;;;;;;6.20;2.28;;;;;;;17.38;68.47;102121.25;5041991;28;20064;-74
2021/08/27 21:58:05;;;;;;;13.57;3.28;;;;;;;16.50;71.38;102122.69;5042192;28;20259;-75
2021/08/27 22:00:30;;;;;;;19.77;4.18;;;;;;;16.50;73.58;102133.25;5041401;28;20033;-74
2021/08/27 22:02:56;;;;;;;11.30;3.92;;;;;;;16.03;74.77;102121.22;5041049;28;20033;-74
2021/08/27 22:05:21;;;;;;;12.35;3.47;;;;;;;16.68;71.56;102115.66;5041336;28;20325;-74
2021/08/27 22:07:47;;;;;;;7.82;3.00;;;;;;;16.29;74.31;102109.47;5041739;28;20041;-74
2021/08/27 22:10:12;;;;;;;5.47;1.77;;;;;;;17.38;66.92;102105.34;5039386;28;20276;-74
2021/08/27 22:12:37;;;;;;;12.98;2.83;;;;;;;16.65;70.72;102107.91;5040551;28;20053;-74
2021/08/27 22:15:04;;;;;;;16.30;3.70;;;;;;;15.99;75.68;102124.03;5040643;28;20340;-74
2021/08/27 22:17:29;;;;;;;11.85;3.97;;;;;;;16.81;72.18;102111.56;5040202;28;20044;-74
2021/08/27 22:19:54;;;;;;;4.55;1.75;;;;;;;17.20;67.86;102117.69;5020768;28;20033;-74
2021/08/27 22:22:20;;;;;;;15.55;4.05;;;;;;;16.09;75.48;102113.00;5040757;28;20230;-74
2021/08/27 22:24:46;;;;;;;11.13;2.83;;;;;;;16.98;70.28;102118.72;5041513;28;20041;-74
2021/08/27 22:27:11;;;;;;;10.32;3.20;;;;;;;16.51;70.82;102114.66;5040177;28;20033;-74
2021/08/27 22:29:37;;;;;;;15.00;3.53;;;;;;;15.35;79.51;102121.38;5041495;28;20242;-74
2021/08/27 22:32:03;;;;;;;8.88;3.25;;;;;;;15.59;77.99;102120.41;5041389;28;20025;-74
2021/08/27 22:34:28;;;;;;;15.57;4.22;;;;;;;15.06;81.33;102119.88;5040780;28;20043;-74
2021/08/27 22:36:54;;;;;;;14.15;3.90;;;;;;;15.09;81.63;102121.53;5041247;28;20210;-74
2021/08/27 22:39:19;;;;;;;12.25;3.40;;;;;;;15.92;76.43;102110.25;5019997;28;20022;-74
2021/08/27 22:41:44;;;;;;;15.30;4.25;;;;;;;15.84;77.56;102113.19;5039723;28;20144;-74
2021/08/27 22:44:10;;;;;;;14.18;3.60;;;;;;;15.67;78.71;102121.81;5041318;28;20380;-74
2021/08/27 22:46:35;;;;;;;16.30;4.10;;;;;;;15.81;77.79;102112.47;5040298;28;20083;-74
2021/08/27 22:49:01;;;;;;;4.32;1.90;;;;;;;16.21;71.94;102114.28;5040031;28;20343;-74
2021/08/27 22:51:26;;;;;;;12.50;3.42;;;;;;;15.81;75.42;102116.00;5040683;28;20042;-74
2021/08/27 22:53:51;;;;;;;11.25;3.95;;;;;;;15.57;79.82;102112.53;5041081;28;20051;-74
2021/08/27 22:56:17;;;;;;;18.27;4.40;;;;;;;15.51;79.97;102113.66;5039065;28;20048;-74
2021/08/27 22:58:42;;;;;;;21.35;4.28;;;;;;;15.45;79.56;102124.47;5040945;28;20075;-74
2021/08/27 23:01:08;;;;;;;9.30;2.95;;;;;;;15.89;75.63;102111.22;5039720;28;20029;-74
2021/08/27 23:03:33;;;;;;;17.95;4.68;;;;;;;15.60;79.59;102115.06;5039188;28;20028;-74
2021/08/27 23:05:58;;;;;;;3.97;1.77;;;;;;;16.38;71.55;102110.88;5040738;28;20041;-74
2021/08/27 23:08:24;;;;;;;8.82;2.75;;;;;;;16.48;73.59;102117.47;5040291;28;20029;-74
2021/08/27 23:10:49;;;;;;;11.25;4.22;;;;;;;16.22;76.00;102112.47;5040661;28;20351;-74
2021/08/27 23:13:15;;;;;;;17.60;4.43;;;;;;;15.84;77.90;102113.19;5040076;28;20025;-73
2021/08/27 23:15:40;;;;;;;13.35;3.88;;;;;;;15.81;77.57;102116.00;5040613;28;20037;-74
2021/08/27 23:18:05;;;;;;;16.08;4.50;;;;;;;15.29;81.76;102112.81;5041043;28;20170;-74
2021/08/27 23:20:31;;;;;;;19.50;5.22;;;;;;;15.30;81.13;102114.56;5039860;28;20277;-74
2021/08/27 23:22:56;;;;;;;18.35;4.38;;;;;;;15.39;80.61;102119.47;5040499;28;20037;-74
2021/08/27 23:25:22;;;;;;;13.80;3.47;;;;;;;15.67;78.70;102120.97;5038769;28;20041;-74
2021/08/27 23:27:48;;;;;;;13.75;3.35;;;;;;;16.36;71.86;102125.09;5039577;28;20036;-74
2021/08/27 23:30:13;;;;;;;18.52;5.15;;;;;;;15.53;80.22;102129.44;5039980;28;20033;-74
2021/08/27 23:32:39;;;;;;;11.90;3.35;;;;;;;16.43;74.76;102121.25;5039295;28;20063;-74
2021/08/27 23:35:04;;;;;;;17.38;4.68;;;;;;;15.70;78.92;102126.97;5039472;28;20040;-74
2021/08/27 23:37:30;;;;;;;17.02;4.50;;;;;;;15.65;79.13;102133.38;5039763;28;20120;-74
2021/08/27 23:39:55;;;;;;;18.15;4.90;;;;;;;15.58;79.48;102131.91;5040539;28;20252;-74
2021/08/27 23:42:21;;;;;;;7.65;2.65;;;;;;;16.18;73.83;102124.97;5040197;28;20033;-74
2021/08/27 23:44:46;;;;;;;13.13;4.20;;;;;;;15.25;80.94;102125.28;5040272;28;20029;-74
2021/08/27 23:47:11;;;;;;;12.60;4.05;;;;;;;15.72;77.93;102130.41;5040174;28;20108;-74
2021/08/27 23:49:37;;;;;;;11.85;3.33;;;;;;;16.53;72.77;102132.25;5039025;28;20030;-74
2021/08/27 23:52:02;;;;;;;10.43;3.67;;;;;;;15.21;80.51;102130.72;5040510;28;20132;-74
2021/08/27 23:54:28;;;;;;;12.10;4.28;;;;;;;15.42;79.58;102127.25;5039671;28;20288;-74
2021/08/27 23:56:53;;;;;;;11.73;3.40;;;;;;;15.65;76.74;102130.72;5039472;28;20037;-74
2021/08/27 23:59:19;;;;;;;15.10;3.55;;;;;;;15.79;77.63;102132.81;5039750;28;20092;-74
